Time;durP1;ratioP1;P1;durP2;ratioP2;P2;SDS_P1;SDS_P2;PMS_P1;PMS_P2;Temp;Humidity;BMP_temperature;BMP_pressure;BME280_temperature;BME280_humidity;BME280_pressure;Samples;Min_cycle;Max_cycle;Signal;HPM_P1;HPM_P2
2024/04/14 00:00:50;;;;;;;17.88;11.45;;;20.50;65.40;;;;;;5454162;26;20010;-78
2024/04/14 00:03:16;;;;;;;16.05;10.77;;;20.40;65.20;;;;;;5453397;26;20353;-78
2024/04/14 00:05:43;;;;;;;17.63;10.88;;;20.40;65.30;;;;;;5453519;26;20350;-78
2024/04/14 00:08:09;;;;;;;15.40;10.70;;;20.40;65.40;;;;;;5453789;26;20039;-78
2024/04/14 00:10:35;;;;;;;15.82;10.73;;;20.40;65.40;;;;;;5453668;26;20399;-78
2024/04/14 00:13:00;;;;;;;19.50;11.52;;;20.30;65.50;;;;;;5453603;26;20026;-77
2024/04/14 00:15:26;;;;;;;20.60;11.95;;;20.30;65.70;;;;;;5453477;26;19999;-78
2024/04/14 00:17:52;;;;;;;17.95;11.40;;;20.30;65.80;;;;;;5453597;26;20003;-79
2024/04/14 00:20:18;;;;;;;17.13;11.82;;;20.30;65.60;;;;;;5453521;26;19999;-77
2024/04/14 00:22:44;;;;;;;17.77;11.80;;;20.30;65.80;;;;;;5453614;26;20035;-79
2024/04/14 00:25:11;;;;;;;18.50;12.00;;;20.20;66.00;;;;;;5453193;26;20010;-79
2024/04/14 00:27:37;;;;;;;18.42;11.68;;;20.20;66.80;;;;;;5452697;26;20322;-77
2024/04/14 00:30:03;;;;;;;19.00;11.43;;;20.30;66.40;;;;;;5453298;26;20010;-77
2024/04/14 00:32:29;;;;;;;13.43;10.95;;;20.20;66.60;;;;;;5453048;26;20030;-78
2024/04/14 00:34:55;;;;;;;17.58;12.00;;;20.20;66.90;;;;;;5451060;26;19995;-76
2024/04/14 00:37:20;;;;;;;16.02;11.40;;;20.10;67.00;;;;;;5451320;26;19994;-78
2024/04/14 00:39:46;;;;;;;14.57;11.45;;;20.20;67.30;;;;;;5451172;26;20131;-78
2024/04/14 00:42:12;;;;;;;15.48;11.88;;;20.10;67.20;;;;;;5452812;26;19995;-78
2024/04/14 00:44:38;;;;;;;18.50;11.55;;;20.20;67.40;;;;;;5452628;26;20036;-77
2024/04/14 00:47:04;;;;;;;16.45;11.25;;;20.20;67.50;;;;;;5450760;26;20002;-77
2024/04/14 00:49:30;;;;;;;18.15;11.32;;;20.20;67.60;;;;;;5452979;26;20454;-79
2024/04/14 00:52:00;;;;;;;19.88;11.70;;;20.20;67.80;;;;;;5452458;26;19998;-78
2024/04/14 00:54:26;;;;;;;15.85;11.88;;;20.10;67.80;;;;;;5452189;26;20071;-78
2024/04/14 00:56:53;;;;;;;15.60;11.75;;;20.10;68.10;;;;;;5452638;26;20005;-78
2024/04/14 00:59:19;;;;;;;15.88;12.52;;;20.00;68.20;;;;;;5452268;26;20006;-77
2024/04/14 01:01:45;;;;;;;16.05;12.52;;;20.00;68.20;;;;;;5452096;26;20009;-79
2024/04/14 01:04:11;;;;;;;16.95;11.70;;;20.00;68.40;;;;;;5452343;26;20064;-78
2024/04/14 01:06:38;;;;;;;15.52;11.40;;;20.00;68.70;;;;;;5452694;26;19995;-77
2024/04/14 01:09:04;;;;;;;19.15;13.40;;;19.90;68.70;;;;;;5452560;26;19995;-78
2024/04/14 01:11:29;;;;;;;18.75;12.48;;;20.00;69.00;;;;;;5452249;26;20026;-77
2024/04/14 01:13:55;;;;;;;19.58;13.13;;;20.00;69.00;;;;;;5452492;26;19999;-78
2024/04/14 01:16:21;;;;;;;22.38;14.23;;;20.00;69.00;;;;;;5452192;26;20342;-78
2024/04/14 01:18:48;;;;;;;17.48;14.10;;;19.90;69.50;;;;;;5452084;26;20005;-78
2024/04/14 01:21:13;;;;;;;24.17;14.88;;;19.90;69.60;;;;;;5452216;26;20071;-77
2024/04/14 01:23:39;;;;;;;24.70;15.55;;;19.90;70.30;;;;;;5452045;26;20411;-77
2024/04/14 01:26:05;;;;;;;22.70;14.93;;;19.90;70.70;;;;;;5452200;26;19999;-78
2024/04/14 01:28:31;;;;;;;24.15;15.73;;;19.80;70.70;;;;;;5451780;26;19999;-77
2024/04/14 01:30:56;;;;;;;18.42;14.07;;;19.80;70.70;;;;;;5452297;26;20039;-77
2024/04/14 01:33:22;;;;;;;17.40;14.32;;;19.80;70.90;;;;;;5451962;26;20418;-78
2024/04/14 01:35:48;;;;;;;21.73;15.40;;;19.80;71.30;;;;;;5452883;26;19995;-78
2024/04/14 01:38:14;;;;;;;17.80;13.93;;;19.80;71.40;;;;;;5452438;26;20042;-77
2024/04/14 01:40:39;;;;;;;20.85;14.43;;;19.80;72.00;;;;;;5450182;26;19998;-77
2024/04/14 01:43:05;;;;;;;17.73;13.40;;;19.80;71.40;;;;;;5452589;26;20054;-79
2024/04/14 01:45:31;;;;;;;17.20;13.30;;;19.70;71.70;;;;;;5451637;26;19999;-77
2024/04/14 01:47:57;;;;;;;21.05;13.48;;;19.70;71.50;;;;;;5451705;26;19998;-78
2024/04/14 01:50:22;;;;;;;19.02;13.00;;;19.70;71.40;;;;;;5452227;26;20454;-78
2024/04/14 01:52:48;;;;;;;19.17;12.88;;;19.70;71.30;;;;;;5451787;26;19999;-78
2024/04/14 01:55:14;;;;;;;19.50;13.13;;;19.70;71.50;;;;;;5451805;26;20007;-76
2024/04/14 01:57:39;;;;;;;17.75;13.23;;;19.70;71.50;;;;;;5452017;26;20007;-77
2024/04/14 02:00:08;;;;;;;18.08;13.18;;;19.60;71.40;;;;;;5451652;26;20009;-78
2024/04/14 02:02:34;;;;;;;20.35;13.07;;;19.60;71.80;;;;;;5451535;26;20370;-77
2024/04/14 02:05:00;;;;;;;18.23;14.38;;;19.60;71.70;;;;;;5451602;26;20009;-77
2024/04/14 02:07:25;;;;;;;18.55;14.20;;;19.50;72.00;;;;;;5451340;26;19995;-76
2024/04/14 02:09:53;;;;;;;18.70;14.63;;;19.50;72.20;;;;;;5451362;26;20005;-77
2024/04/14 02:12:19;;;;;;;21.75;14.27;;;19.40;72.40;;;;;;5451396;26;20043;-79
2024/04/14 02:14:44;;;;;;;20.25;14.13;;;19.40;72.70;;;;;;5454247;26;20372;-77
2024/04/14 02:17:10;;;;;;;18.30;13.85;;;19.30;72.70;;;;;;5454400;26;20002;-77
2024/04/14 02:19:36;;;;;;;21.85;13.77;;;19.20;72.80;;;;;;5454653;26;20067;-78
2024/04/14 02:22:01;;;;;;;15.98;12.35;;;19.10;73.00;;;;;;5455107;26;20032;-78
2024/04/14 02:24:32;;;;;;;21.73;13.27;;;19.10;73.70;;;;;;5455178;26;20056;-78
2024/04/14 02:26:58;;;;;;;15.10;12.23;;;19.10;73.40;;;;;;5454845;26;20006;-78
2024/04/14 02:29:24;;;;;;;14.68;11.60;;;19.10;73.20;;;;;;5454788;26;20005;-78
2024/04/14 02:31:49;;;;;;;18.40;12.85;;;19.10;73.30;;;;;;5455325;26;19994;-78
2024/04/14 02:34:15;;;;;;;16.17;11.77;;;19.10;73.10;;;;;;5452694;26;20450;-77
2024/04/14 02:36:41;;;;;;;22.45;12.25;;;19.10;73.20;;;;;;5454551;26;20427;-78
2024/04/14 02:39:08;;;;;;;19.38;12.23;;;19.10;73.20;;;;;;5454356;26;20007;-77
2024/04/14 02:41:35;;;;;;;15.95;12.35;;;19.00;73.20;;;;;;5453998;26;20079;-78
2024/04/14 02:44:01;;;;;;;15.88;12.07;;;19.00;73.30;;;;;;5454346;26;20006;-77
2024/04/14 02:46:27;;;;;;;16.55;11.98;;;19.00;73.30;;;;;;5454064;26;20005;-77
2024/04/14 02:48:53;;;;;;;15.43;11.77;;;19.00;73.50;;;;;;5454267;26;19994;-77
2024/04/14 02:51:18;;;;;;;15.32;11.85;;;19.00;73.30;;;;;;5454026;26;20041;-77
2024/04/14 02:53:44;;;;;;;18.48;11.35;;;19.00;73.50;;;;;;5455373;26;19995;-77
2024/04/14 02:56:10;;;;;;;19.40;11.85;;;19.00;73.60;;;;;;5459985;26;20331;-79
2024/04/14 02:58:35;;;;;;;15.52;11.07;;;19.00;73.50;;;;;;5459626;26;19994;-77
2024/04/14 03:01:02;;;;;;;16.77;11.02;;;18.90;73.50;;;;;;5455718;26;19995;-77
2024/04/14 03:03:27;;;;;;;15.75;11.65;;;18.90;73.50;;;;;;5455454;26;19999;-77
2024/04/14 03:06:00;;;;;;;16.35;11.60;;;19.00;73.60;;;;;;5454384;26;20121;-78
2024/04/14 03:08:26;;;;;;;16.00;11.18;;;19.00;73.60;;;;;;5454385;26;20008;-79
2024/04/14 03:10:55;;;;;;;12.48;10.73;;;19.00;73.50;;;;;;5454536;26;19994;-77
2024/04/14 03:13:21;;;;;;;15.18;10.90;;;19.00;73.40;;;;;;5455114;26;20071;-77
2024/04/14 03:15:47;;;;;;;14.77;10.82;;;19.00;73.40;;;;;;5455186;26;20003;-77
2024/04/14 03:18:13;;;;;;;13.63;10.07;;;19.00;73.60;;;;;;5454530;26;19999;-79
2024/04/14 03:20:38;;;;;;;13.13;10.50;;;18.90;73.60;;;;;;5454112;26;19999;-77
2024/04/14 03:23:04;;;;;;;14.80;10.75;;;19.00;73.70;;;;;;5454673;26;19995;-77
2024/04/14 03:25:29;;;;;;;14.10;10.68;;;19.00;73.70;;;;;;5452577;26;19999;-79
2024/04/14 03:27:55;;;;;;;15.57;11.05;;;18.90;73.60;;;;;;5453959;26;19999;-77
2024/04/14 03:30:21;;;;;;;17.85;10.80;;;18.90;73.80;;;;;;5453880;26;20306;-76
2024/04/14 03:32:46;;;;;;;15.27;10.60;;;18.90;73.80;;;;;;5454813;26;20075;-78
2024/04/14 03:35:12;;;;;;;14.60;10.80;;;18.90;73.90;;;;;;5454404;26;20074;-78
2024/04/14 03:37:39;;;;;;;16.10;11.10;;;18.90;73.90;;;;;;5454553;26;20018;-77
2024/04/14 03:40:06;;;;;;;15.15;10.68;;;18.90;74.00;;;;;;5454175;26;19999;-79
2024/04/14 03:42:35;;;;;;;16.45;10.63;;;18.80;74.10;;;;;;5452206;26;19999;-80
2024/04/14 03:45:07;;;;;;;14.48;10.63;;;18.80;74.10;;;;;;5453897;26;20009;-77
2024/04/14 03:47:33;;;;;;;13.75;11.25;;;18.90;74.10;;;;;;5453598;26;20071;-77
2024/04/14 03:49:59;;;;;;;12.75;10.50;;;18.90;74.40;;;;;;5453941;26;20007;-77
2024/04/14 03:52:24;;;;;;;15.02;11.25;;;18.80;74.20;;;;;;5453850;26;20206;-77
2024/04/14 03:54:50;;;;;;;18.17;11.90;;;18.80;74.20;;;;;;5454189;26;20514;-78
2024/04/14 03:57:16;;;;;;;14.40;10.60;;;18.70;74.20;;;;;;5454320;26;20005;-80
2024/04/14 03:59:44;;;;;;;17.77;11.80;;;18.70;74.50;;;;;;5467396;26;20006;-79
2024/04/14 04:02:10;;;;;;;14.45;11.23;;;18.70;74.50;;;;;;5454261;26;20031;-78
2024/04/14 04:04:36;;;;;;;18.15;11.25;;;18.60;74.50;;;;;;5453530;26;20007;-78
2024/04/14 04:07:02;;;;;;;15.07;11.73;;;18.60;74.80;;;;;;5453687;26;19998;-78
2024/04/14 04:09:28;;;;;;;17.10;12.10;;;18.60;74.80;;;;;;5453254;26;20009;-77
2024/04/14 04:11:53;;;;;;;18.75;12.00;;;18.60;74.70;;;;;;5453688;26;20006;-77
2024/04/14 04:14:19;;;;;;;17.27;11.98;;;18.60;74.90;;;;;;5454217;26;20063;-78
2024/04/14 04:16:45;;;;;;;16.77;11.50;;;18.50;75.10;;;;;;5453697;26;20102;-77
2024/04/14 04:19:11;;;;;;;18.75;11.98;;;18.50;75.10;;;;;;5453308;26;19995;-77
2024/04/14 04:21:37;;;;;;;16.15;10.98;;;18.50;75.10;;;;;;5453180;26;19995;-76
2024/04/14 04:24:03;;;;;;;15.23;11.85;;;18.50;75.30;;;;;;5453266;26;20005;-77
2024/04/14 04:26:29;;;;;;;16.33;11.73;;;18.50;75.30;;;;;;5453482;26;19999;-76
2024/04/14 04:28:54;;;;;;;14.13;11.77;;;18.40;75.30;;;;;;5453528;26;20001;-78
2024/04/14 04:31:20;;;;;;;13.80;11.25;;;18.50;75.70;;;;;;5453211;26;20014;-78
2024/04/14 04:33:46;;;;;;;16.80;10.77;;;18.50;75.70;;;;;;5452998;26;20071;-77
2024/04/14 04:36:13;;;;;;;14.98;11.25;;;18.50;75.60;;;;;;5452438;26;20006;-78
2024/04/14 04:38:42;;;;;;;16.70;10.50;;;18.50;75.50;;;;;;5452702;26;19995;-77
2024/04/14 04:41:08;;;;;;;18.00;11.93;;;18.60;75.50;;;;;;5452838;26;20003;-78
2024/04/14 04:43:36;;;;;;;16.77;11.38;;;18.60;75.40;;;;;;5452914;26;19999;-79
2024/04/14 04:46:01;;;;;;;20.92;12.23;;;18.50;75.40;;;;;;5453017;26;20344;-77
2024/04/14 04:48:27;;;;;;;18.20;12.15;;;18.50;76.30;;;;;;5453236;26;20022;-78
2024/04/14 04:50:52;;;;;;;21.02;12.23;;;18.40;75.70;;;;;;5453796;26;19993;-78
2024/04/14 04:53:18;;;;;;;15.35;12.10;;;18.40;75.80;;;;;;5452855;26;20438;-77
2024/04/14 04:55:47;;;;;;;19.05;12.05;;;18.40;76.00;;;;;;5453171;26;19999;-78
2024/04/14 04:58:14;;;;;;;16.27;11.55;;;18.40;76.90;;;;;;5453561;26;20003;-77
2024/04/14 05:00:40;;;;;;;14.60;11.65;;;18.40;76.00;;;;;;5453707;26;20075;-78
2024/04/14 05:03:05;;;;;;;15.85;11.60;;;18.50;75.90;;;;;;5466212;26;20003;-78
2024/04/14 05:05:31;;;;;;;16.90;11.88;;;18.50;75.90;;;;;;5453277;26;20072;-77
2024/04/14 05:07:57;;;;;;;15.63;11.57;;;18.60;75.80;;;;;;5453060;26;20003;-77
2024/04/14 05:10:23;;;;;;;18.00;12.38;;;18.50;75.90;;;;;;5452904;26;20438;-77
2024/04/14 05:12:49;;;;;;;16.85;11.68;;;18.50;75.90;;;;;;5453017;26;20398;-78
2024/04/14 05:15:14;;;;;;;15.02;11.60;;;18.60;76.00;;;;;;5452429;26;19991;-77
2024/04/14 05:17:40;;;;;;;17.60;12.35;;;18.60;75.80;;;;;;5452541;26;19999;-79
2024/04/14 05:20:06;;;;;;;14.32;11.32;;;18.60;75.80;;;;;;5452171;26;19998;-77
2024/04/14 05:22:32;;;;;;;14.88;11.50;;;18.60;76.00;;;;;;5450375;26;20014;-78
2024/04/14 05:24:58;;;;;;;16.85;12.13;;;18.60;75.90;;;;;;5452148;26;20010;-78
2024/04/14 05:27:23;;;;;;;15.00;11.82;;;18.60;76.10;;;;;;5452249;26;19995;-77
2024/04/14 05:29:49;;;;;;;15.85;11.88;;;18.60;76.00;;;;;;5452009;26;20005;-76
2024/04/14 05:32:15;;;;;;;19.13;11.25;;;18.60;76.10;;;;;;5452048;26;20002;-77
2024/04/14 05:34:44;;;;;;;17.15;11.30;;;18.60;76.00;;;;;;5451870;26;20010;-79
2024/04/14 05:37:09;;;;;;;18.50;11.00;;;18.60;75.80;;;;;;5451536;26;19999;-77
2024/04/14 05:39:38;;;;;;;19.10;11.57;;;18.70;76.10;;;;;;5449828;26;20384;-79
2024/04/14 05:42:04;;;;;;;15.68;11.25;;;18.80;76.30;;;;;;5452401;26;20010;-78
2024/04/14 05:44:33;;;;;;;15.45;11.20;;;18.90;75.90;;;;;;5452213;26;19999;-80
2024/04/14 05:46:59;;;;;;;14.88;11.35;;;19.00;75.40;;;;;;5452252;26;20005;-78
2024/04/14 05:49:25;;;;;;;16.92;10.75;;;19.20;75.10;;;;;;5453729;26;19999;-78
2024/04/14 05:51:50;;;;;;;16.30;10.85;;;19.50;74.60;;;;;;5454793;26;20010;-78
2024/04/14 05:54:16;;;;;;;15.02;10.52;;;20.80;73.00;;;;;;5455063;26;20014;-77
2024/04/14 05:56:42;;;;;;;13.10;10.50;;;21.80;70.00;;;;;;5455256;26;20018;-79
2024/04/14 05:59:07;;;;;;;18.60;11.48;;;22.80;67.90;;;;;;5454770;26;20023;-77
2024/04/14 06:01:33;;;;;;;17.48;10.63;;;23.60;66.10;;;;;;5455007;26;19995;-77
2024/04/14 06:03:58;;;;;;;13.25;10.00;;;24.30;64.40;;;;;;5459301;26;20011;-78
2024/04/14 06:06:24;;;;;;;18.83;10.60;;;24.80;63.30;;;;;;5465585;26;20007;-78
2024/04/14 06:08:52;;;;;;;14.73;10.45;;;25.00;62.70;;;;;;5455492;26;19995;-77
2024/04/14 06:11:18;;;;;;;19.40;11.05;;;25.50;61.90;;;;;;5454021;26;20018;-77
2024/04/14 06:13:44;;;;;;;17.58;11.70;;;25.90;60.90;;;;;;5455653;26;20130;-78
2024/04/14 06:16:10;;;;;;;17.55;10.77;;;26.40;60.30;;;;;;5455175;26;19995;-78
2024/04/14 06:18:35;;;;;;;18.90;9.95;;;26.70;59.40;;;;;;5455417;26;20068;-79
2024/04/14 06:21:03;;;;;;;12.40;9.18;;;26.90;58.60;;;;;;5455263;26;20038;-78
2024/04/14 06:23:29;;;;;;;16.25;10.00;;;27.20;58.10;;;;;;5454939;26;20003;-78
2024/04/14 06:25:55;;;;;;;15.35;9.82;;;27.60;57.60;;;;;;5455386;26;20068;-78
2024/04/14 06:28:20;;;;;;;18.23;13.07;;;28.10;56.90;;;;;;5455135;26;20006;-79
2024/04/14 06:30:46;;;;;;;15.70;10.32;;;28.30;56.30;;;;;;5454736;26;20007;-78
2024/04/14 06:33:11;;;;;;;16.58;10.00;;;28.70;55.70;;;;;;5455268;26;19995;-78
2024/04/14 06:35:38;;;;;;;12.73;9.45;;;28.60;55.10;;;;;;5455092;26;19999;-78
2024/04/14 06:38:04;;;;;;;16.33;9.73;;;28.90;54.80;;;;;;5454547;26;19991;-79
2024/04/14 06:40:29;;;;;;;17.13;9.50;;;28.90;54.40;;;;;;5454234;26;20011;-77
2024/04/14 06:42:55;;;;;;;13.25;9.68;;;29.10;54.20;;;;;;5454574;26;20458;-78
2024/04/14 06:45:20;;;;;;;15.05;9.02;;;29.40;53.70;;;;;;5455297;26;20088;-78
2024/04/14 06:47:46;;;;;;;13.52;8.82;;;29.60;53.10;;;;;;5454279;26;20006;-77
2024/04/14 06:50:12;;;;;;;17.90;8.82;;;29.70;52.70;;;;;;5454660;26;20463;-77
2024/04/14 06:52:37;;;;;;;14.63;8.30;;;30.10;52.00;;;;;;5454514;26;19995;-77
2024/04/14 06:55:03;;;;;;;13.20;8.80;;;30.30;51.60;;;;;;5454746;26;19995;-78
2024/04/14 06:57:29;;;;;;;12.18;8.48;;;30.50;50.80;;;;;;5454311;26;20442;-78
2024/04/14 06:59:55;;;;;;;10.48;7.70;;;30.80;50.30;;;;;;5453866;26;20098;-79
2024/04/14 07:02:21;;;;;;;11.95;7.50;;;30.80;49.70;;;;;;5452464;26;20354;-78
2024/04/14 07:04:46;;;;;;;15.38;8.30;;;31.00;49.40;;;;;;5453902;26;20014;-78
2024/04/14 07:07:12;;;;;;;11.15;7.68;;;31.10;48.90;;;;;;5458723;26;20005;-79
2024/04/14 07:09:38;;;;;;;11.38;7.30;;;31.50;48.40;;;;;;5454527;26;20006;-78
2024/04/14 07:12:04;;;;;;;13.55;7.45;;;31.90;48.10;;;;;;5454825;26;20416;-78
2024/04/14 07:14:29;;;;;;;12.13;8.27;;;32.30;47.50;;;;;;5454033;26;20002;-81
2024/04/14 07:16:55;;;;;;;14.77;8.23;;;32.50;46.70;;;;;;5453924;26;19998;-80
2024/04/14 07:19:21;;;;;;;12.10;8.07;;;32.10;46.60;;;;;;5454112;26;20439;-79
2024/04/14 07:21:46;;;;;;;11.60;8.45;;;32.10;46.50;;;;;;5454390;26;20006;-78
2024/04/14 07:24:12;;;;;;;13.70;8.57;;;31.90;46.60;;;;;;5454168;26;20072;-78
2024/04/14 07:26:38;;;;;;;11.43;8.00;;;31.80;46.50;;;;;;5453561;26;19995;-78
2024/04/14 07:29:04;;;;;;;13.32;10.45;;;31.20;47.00;;;;;;5453935;26;20001;-80
2024/04/14 07:31:29;;;;;;;25.83;20.05;;;30.00;48.60;;;;;;5454352;26;20028;-77
2024/04/14 07:33:59;;;;;;;12.55;10.18;;;28.90;50.10;;;;;;5454423;26;20358;-78
2024/04/14 07:36:25;;;;;;;13.98;8.75;;;28.20;51.80;;;;;;5454137;26;19994;-79
2024/04/14 07:38:51;;;;;;;15.35;8.68;;;27.60;52.80;;;;;;5453845;26;20010;-79
2024/04/14 07:41:17;;;;;;;12.55;9.07;;;27.20;53.50;;;;;;5454348;26;20326;-80
2024/04/14 07:43:42;;;;;;;12.05;8.85;;;26.80;54.30;;;;;;5453903;26;19999;-78
2024/04/14 07:46:08;;;;;;;14.68;10.45;;;26.50;55.10;;;;;;5453707;26;19994;-78
2024/04/14 07:48:33;;;;;;;14.07;10.63;;;26.30;55.50;;;;;;5453787;26;19994;-79
2024/04/14 07:50:59;;;;;;;18.63;12.77;;;26.20;55.90;;;;;;5454368;26;19995;-77
2024/04/14 07:53:25;;;;;;;14.10;10.02;;;26.00;56.10;;;;;;5453848;26;20020;-78
2024/04/14 07:55:54;;;;;;;15.85;8.98;;;26.00;56.50;;;;;;5454076;26;20380;-79
2024/04/14 07:58:20;;;;;;;18.70;14.10;;;25.90;56.70;;;;;;5453795;26;20010;-78
2024/04/14 08:00:46;;;;;;;18.65;13.73;;;25.80;56.80;;;;;;5453847;26;20350;-78
2024/04/14 08:03:11;;;;;;;14.93;9.85;;;25.70;57.10;;;;;;5453798;26;19995;-78
2024/04/14 08:05:37;;;;;;;20.15;9.52;;;25.70;57.50;;;;;;5452060;26;20010;-78
2024/04/14 08:08:03;;;;;;;13.77;8.55;;;25.60;57.40;;;;;;5468964;26;19999;-80
2024/04/14 08:10:29;;;;;;;13.55;8.32;;;25.60;57.40;;;;;;5453519;26;19998;-79
2024/04/14 08:12:54;;;;;;;14.30;8.00;;;25.50;57.40;;;;;;5453219;26;20006;-79
2024/04/14 08:15:20;;;;;;;12.55;8.20;;;25.40;57.60;;;;;;5453990;26;20007;-78
2024/04/14 08:17:46;;;;;;;10.70;7.75;;;25.40;58.00;;;;;;5453529;26;20430;-80
2024/04/14 08:20:11;;;;;;;11.38;8.07;;;25.40;58.20;;;;;;5451930;26;20068;-80
2024/04/14 08:22:37;;;;;;;14.38;10.23;;;25.40;57.80;;;;;;5454083;26;19998;-79
2024/04/14 08:25:03;;;;;;;12.80;8.15;;;25.40;57.60;;;;;;5454114;26;20006;-78
2024/04/14 08:27:28;;;;;;;12.55;7.88;;;25.30;57.60;;;;;;5453759;26;19998;-79
2024/04/14 08:29:54;;;;;;;21.17;14.88;;;25.20;58.00;;;;;;5453613;26;20002;-81
2024/04/14 08:32:20;;;;;;;15.95;12.35;;;25.30;58.10;;;;;;5453829;26;19999;-77
2024/04/14 08:34:45;;;;;;;12.73;8.80;;;25.30;58.20;;;;;;5453547;26;20433;-79
2024/04/14 08:37:11;;;;;;;11.65;7.90;;;25.30;58.30;;;;;;5453310;26;20085;-79
2024/04/14 08:39:37;;;;;;;18.73;8.52;;;25.30;58.10;;;;;;5453535;26;19999;-79
2024/04/14 08:42:05;;;;;;;17.95;8.35;;;25.30;58.00;;;;;;5454410;26;20009;-79
2024/04/14 08:44:33;;;;;;;16.17;8.80;;;25.20;58.10;;;;;;5453100;26;19990;-79
2024/04/14 08:47:01;;;;;;;17.73;7.93;;;25.30;58.20;;;;;;5453049;26;20093;-77
2024/04/14 08:49:28;;;;;;;15.95;8.13;;;25.30;58.30;;;;;;5452764;26;19999;-78
2024/04/14 08:51:55;;;;;;;16.67;8.85;;;25.30;58.10;;;;;;5453311;26;20066;-79
2024/04/14 08:54:21;;;;;;;14.20;8.30;;;25.30;58.10;;;;;;5453161;26;20031;-78
2024/04/14 08:56:54;;;;;;;15.65;7.93;;;25.30;58.10;;;;;;5452630;26;20342;-80
2024/04/14 08:59:21;;;;;;;;;;;25.30;58.10;;;;;;5453317;26;19998;-75
2024/04/14 09:01:47;;;;;;;12.52;7.88;;;25.30;57.90;;;;;;5452811;26;20022;-79
2024/04/14 09:04:14;;;;;;;11.80;6.63;;;25.30;58.30;;;;;;5452860;26;19995;-77
2024/04/14 09:06:42;;;;;;;13.25;7.25;;;25.30;58.40;;;;;;5452443;26;20316;-78
2024/04/14 09:09:08;;;;;;;15.27;9.60;;;25.40;58.50;;;;;;5468775;26;20001;-78
2024/04/14 09:11:34;;;;;;;11.57;7.22;;;25.40;58.50;;;;;;5452437;26;19991;-78
2024/04/14 09:14:00;;;;;;;18.77;7.68;;;25.40;58.50;;;;;;5452125;26;20062;-78
2024/04/14 09:16:26;;;;;;;11.90;7.40;;;25.50;58.70;;;;;;5452519;26;20017;-78
2024/04/14 09:18:55;;;;;;;14.98;7.15;;;25.50;58.70;;;;;;5452549;26;20002;-79
2024/04/14 09:21:21;;;;;;;12.25;7.22;;;25.50;58.70;;;;;;5452466;26;20519;-78
2024/04/14 09:23:48;;;;;;;10.55;6.78;;;25.60;58.80;;;;;;5452116;26;20010;-78
2024/04/14 09:26:14;;;;;;;12.15;7.57;;;25.60;59.00;;;;;;5452249;26;20003;-78
2024/04/14 09:28:40;;;;;;;12.25;7.78;;;25.70;58.80;;;;;;5451747;26;20009;-78
2024/04/14 09:31:06;;;;;;;15.85;10.07;;;25.70;58.90;;;;;;5451907;26;20005;-76
2024/04/14 09:33:32;;;;;;;13.63;7.30;;;25.70;58.90;;;;;;5452047;26;19999;-78
2024/04/14 09:35:58;;;;;;;11.02;7.20;;;25.70;58.80;;;;;;5452283;26;19995;-77
2024/04/14 09:38:25;;;;;;;9.27;6.53;;;25.70;59.10;;;;;;5452228;26;19999;-78
2024/04/14 09:40:52;;;;;;;11.52;7.18;;;25.80;59.20;;;;;;5451900;26;20007;-79
2024/04/14 09:43:19;;;;;;;12.45;6.63;;;25.90;58.70;;;;;;5452407;26;20033;-79
2024/04/14 09:45:47;;;;;;;11.35;6.75;;;25.90;58.70;;;;;;5452479;26;19995;-77
2024/04/14 09:48:14;;;;;;;13.70;6.82;;;26.00;58.60;;;;;;5451743;26;19999;-78
2024/04/14 09:50:42;;;;;;;12.65;6.68;;;26.00;58.60;;;;;;5452250;26;20345;-79
2024/04/14 09:53:09;;;;;;;14.93;5.80;;;26.10;58.30;;;;;;5450206;26;20006;-78
2024/04/14 09:55:34;;;;;;;11.25;5.72;;;26.10;58.00;;;;;;5451927;26;20072;-79
2024/04/14 09:58:00;;;;;;;13.30;5.88;;;26.20;57.80;;;;;;5451683;26;20126;-79
2024/04/14 10:00:26;;;;;;;11.95;5.57;;;26.20;57.50;;;;;;5452180;26;19998;-78
2024/04/14 10:03:06;;;;;;;13.40;6.43;;;26.30;57.60;;;;;;5451733;26;20010;-78
2024/04/14 10:05:32;;;;;;;8.85;5.90;;;26.30;57.60;;;;;;5451653;26;19998;-77
2024/04/14 10:07:58;;;;;;;10.63;6.68;;;26.30;57.50;;;;;;5456535;26;19995;-74
2024/04/14 10:10:24;;;;;;;12.60;6.63;;;26.40;57.40;;;;;;5459592;26;20010;-78
2024/04/14 10:12:52;;;;;;;12.82;6.45;;;26.40;57.30;;;;;;5451805;26;19994;-79
2024/04/14 10:15:19;;;;;;;10.77;6.22;;;26.50;57.40;;;;;;5451554;26;20037;-80
2024/04/14 10:17:46;;;;;;;10.68;5.70;;;26.60;57.00;;;;;;5451034;26;20038;-79
2024/04/14 10:20:15;;;;;;;11.30;5.78;;;26.60;56.70;;;;;;5450895;26;20006;-79
2024/04/14 10:22:42;;;;;;;9.10;5.65;;;26.70;56.30;;;;;;5451178;26;20002;-79
2024/04/14 10:25:22;;;;;;;10.65;5.32;;;26.80;56.10;;;;;;5451511;26;20454;-77
2024/04/14 10:27:48;;;;;;;13.73;8.15;;;26.90;55.90;;;;;;5451029;26;20023;-78
2024/04/14 10:30:21;;;;;;;12.93;6.82;;;27.00;55.20;;;;;;5451126;26;20002;-78
2024/04/14 10:32:48;;;;;;;10.10;6.25;;;27.10;54.80;;;;;;5451078;26;20116;-79
2024/04/14 10:35:17;;;;;;;11.82;6.72;;;27.10;53.90;;;;;;5453368;26;19995;-79
2024/04/14 10:38:02;;;;;;;10.07;5.57;;;27.20;53.50;;;;;;5455079;26;20314;-78
2024/04/14 10:40:29;;;;;;;9.98;5.75;;;27.20;53.20;;;;;;5455501;26;20326;-78
2024/04/14 10:42:54;;;;;;;9.30;5.22;;;27.30;52.60;;;;;;5455056;26;20341;-79
2024/04/14 10:45:29;;;;;;;10.75;5.28;;;27.40;52.80;;;;;;5454976;26;20001;-78
2024/04/14 10:47:59;;;;;;;8.10;5.28;;;27.40;52.20;;;;;;5454552;26;20392;-79
2024/04/14 10:50:27;;;;;;;11.30;5.18;;;27.50;52.20;;;;;;5455079;26;20439;-79
2024/04/14 10:52:53;;;;;;;10.57;5.40;;;27.60;52.00;;;;;;5454834;26;20007;-79
2024/04/14 10:55:19;;;;;;;8.07;5.18;;;27.70;51.60;;;;;;5455814;26;20461;-79
2024/04/14 10:57:45;;;;;;;9.13;5.80;;;27.70;51.70;;;;;;5454746;26;20038;-77
2024/04/14 11:00:11;;;;;;;9.82;4.47;;;27.70;51.90;;;;;;5454868;26;19994;-79
2024/04/14 11:02:37;;;;;;;7.63;4.80;;;27.80;51.60;;;;;;5455378;26;20006;-79
2024/04/14 11:05:04;;;;;;;9.25;5.22;;;27.90;50.90;;;;;;5454934;26;20002;-78
2024/04/14 11:07:30;;;;;;;10.18;5.70;;;27.90;50.50;;;;;;5462113;26;20439;-79
2024/04/14 11:09:56;;;;;;;8.27;4.60;;;28.00;51.00;;;;;;5457322;26;20009;-78
2024/04/14 11:12:22;;;;;;;10.15;5.10;;;28.00;50.30;;;;;;5454613;26;20009;-79
2024/04/14 11:14:48;;;;;;;13.20;5.57;;;28.10;49.50;;;;;;5454742;26;20003;-79
2024/04/14 11:17:14;;;;;;;8.20;4.72;;;28.20;49.30;;;;;;5452684;26;20006;-80
2024/04/14 11:19:39;;;;;;;7.82;4.20;;;28.30;48.80;;;;;;5454619;26;20075;-78
2024/04/14 11:22:05;;;;;;;7.35;4.43;;;28.40;48.40;;;;;;5454546;26;19994;-79
2024/04/14 11:24:35;;;;;;;8.73;4.75;;;28.50;47.70;;;;;;5454488;26;20013;-80
2024/04/14 11:27:03;;;;;;;7.18;4.68;;;28.50;48.10;;;;;;5454233;26;19999;-79
2024/04/14 11:29:28;;;;;;;8.43;4.85;;;28.70;48.40;;;;;;5454347;26;20016;-79
2024/04/14 11:31:54;;;;;;;10.13;5.50;;;28.70;48.30;;;;;;5454163;26;20012;-79
2024/04/14 11:34:19;;;;;;;10.88;5.70;;;28.70;49.00;;;;;;5454048;26;19995;-79
2024/04/14 11:36:47;;;;;;;7.95;4.82;;;28.80;49.20;;;;;;5453742;26;19999;-79
2024/04/14 11:39:13;;;;;;;10.90;4.93;;;28.90;48.80;;;;;;5454550;26;20002;-79
2024/04/14 11:41:39;;;;;;;9.30;5.47;;;28.90;48.80;;;;;;5454509;26;20006;-77
2024/04/14 11:44:06;;;;;;;10.05;5.78;;;28.90;49.30;;;;;;5453968;26;20019;-79
2024/04/14 11:46:32;;;;;;;11.85;7.00;;;29.00;50.10;;;;;;5452898;26;20327;-78
2024/04/14 11:48:58;;;;;;;12.52;7.10;;;29.00;51.30;;;;;;5453887;26;20049;-79
2024/04/14 11:51:24;;;;;;;15.85;8.02;;;28.90;52.40;;;;;;5453929;26;20007;-78
2024/04/14 11:53:49;;;;;;;16.23;7.93;;;28.90;53.30;;;;;;5453817;26;19998;-79
2024/04/14 11:56:15;;;;;;;14.98;8.05;;;28.80;53.60;;;;;;5453750;26;20079;-80
2024/04/14 11:58:41;;;;;;;12.85;7.55;;;28.80;54.00;;;;;;5454106;26;19999;-80
2024/04/14 12:01:07;;;;;;;12.05;7.03;;;28.80;54.10;;;;;;5453841;26;19998;-79
2024/04/14 12:03:33;;;;;;;11.27;7.57;;;28.80;54.70;;;;;;5454265;26;20010;-79
2024/04/14 12:05:58;;;;;;;10.95;7.53;;;28.90;54.80;;;;;;5454376;26;19999;-80
2024/04/14 12:08:24;;;;;;;11.18;7.47;;;28.90;54.90;;;;;;5458107;26;19995;-79
2024/04/14 12:10:50;;;;;;;12.05;7.82;;;29.00;54.90;;;;;;5454974;26;20009;-80
2024/04/14 12:13:15;;;;;;;9.98;7.07;;;29.00;55.20;;;;;;5454141;26;20416;-80
2024/04/14 12:15:41;;;;;;;13.55;7.68;;;29.00;54.60;;;;;;5453997;26;19991;-80
2024/04/14 12:18:07;;;;;;;9.75;6.55;;;29.00;54.80;;;;;;5453960;26;20013;-79
2024/04/14 12:20:32;;;;;;;14.27;7.65;;;29.00;54.40;;;;;;5454084;26;20010;-80
2024/04/14 12:22:58;;;;;;;11.02;6.68;;;29.10;54.80;;;;;;5453631;26;20014;-80
2024/04/14 12:25:24;;;;;;;14.73;7.07;;;29.20;54.80;;;;;;5453586;26;20296;-80
2024/04/14 12:27:49;;;;;;;10.18;6.95;;;29.20;54.60;;;;;;5453714;26;20442;-80